Time;durP1;ratioP1;P1;durP2;ratioP2;P2;SDS_P1;SDS_P2;PMS_P1;PMS_P2;Temp;Humidity;BMP_temperature;BMP_pressure;BME280_temperature;BME280_humidity;BME280_pressure;Samples;Min_cycle;Max_cycle;Signal;HPM_P1;HPM_P2
2023/02/10 00:00:26;;;;;;;;;;;;;;;28.99;59.14;101011.22;5096765;27;69732;-35
2023/02/10 00:02:56;;;;;;;;;;;;;;;29.04;58.80;101016.06;5091695;27;66662;-34
2023/02/10 00:05:27;;;;;;;;;;;;;;;29.10;58.98;101017.94;5095566;27;70319;-35
2023/02/10 00:07:57;;;;;;;;;;;;;;;29.11;58.96;101017.75;5097635;27;66460;-35
2023/02/10 00:10:27;;;;;;;;;;;;;;;29.05;58.17;101029.34;5101667;27;69216;-34
2023/02/10 00:12:57;;;;;;;;;;;;;;;28.99;57.51;101034.69;5099723;27;66788;-36
2023/02/10 00:15:27;;;;;;;;;;;;;;;28.99;57.35;101032.81;5098606;27;70228;-35
2023/02/10 00:17:57;;;;;;;;;;;;;;;28.99;57.00;101034.69;5083796;27;66980;-37
2023/02/10 00:20:27;;;;;;;;;;;;;;;29.00;57.03;101036.34;5079934;27;69817;-36
2023/02/10 00:22:58;;;;;;;;;;;;;;;29.02;56.81;101034.28;5099297;27;65732;-34
2023/02/10 00:25:28;;;;;;;;;;;;;;;29.04;57.07;101026.84;5088747;27;70498;-35
2023/02/10 00:27:58;;;;;;;;;;;;;;;29.06;57.07;101040.97;5096504;27;65937;-37
2023/02/10 00:30:28;;;;;;;;;;;;;;;29.07;56.82;101042.66;5083118;27;70339;-35
2023/02/10 00:32:58;;;;;;;;;;;;;;;29.10;56.90;101044.94;5091161;27;65591;-35
2023/02/10 00:35:28;;;;;;;;;;;;;;;29.20;58.23;101053.50;5063300;27;69020;-36
2023/02/10 00:37:59;;;;;;;;;;;;;;;29.28;58.48;101055.13;5079844;27;66749;-36
2023/02/10 00:40:29;;;;;;;;;;;;;;;29.30;58.21;101064.72;5083763;27;69579;-34
2023/02/10 00:42:59;;;;;;;;;;;;;;;29.30;58.65;101067.41;5099692;27;66974;-37
2023/02/10 00:45:29;;;;;;;;;;;;;;;29.28;58.95;101066.81;5092344;27;70212;-36
2023/02/10 00:47:59;;;;;;;;;;;;;;;29.28;59.10;101065.94;5074613;27;66036;-37
2023/02/10 00:50:29;;;;;;;;;;;;;;;29.24;57.60;101067.41;5101262;27;69996;-33
2023/02/10 00:53:00;;;;;;;;;;;;;;;29.13;57.45;101068.84;5095205;27;66250;-37
2023/02/10 00:55:30;;;;;;;;;;;;;;;29.10;56.98;101074.66;5076777;27;69942;-34
2023/02/10 00:58:00;;;;;;;;;;;;;;;29.04;56.85;101081.69;5099704;27;65906;-34
2023/02/10 01:00:33;;;;;;;;;;;;;;;29.03;57.07;101085.44;5094358;27;63703;-33
2023/02/10 01:03:03;;;;;;;;;;;;;;;29.00;56.85;101093.06;5096074;27;66216;-33
2023/02/10 01:05:33;;;;;;;;;;;;;;;28.99;57.06;101094.13;5093282;27;69435;-34
2023/02/10 01:08:03;;;;;;;;;;;;;;;29.00;57.05;101106.56;5098527;27;66077;-35
2023/02/10 01:10:34;;;;;;;;;;;;;;;28.97;57.11;101097.00;5099632;27;69467;-32
2023/02/10 01:13:06;;;;;;;;;;;;;;;28.98;57.00;101097.88;5091345;27;66593;-34
2023/02/10 01:15:40;;;;;;;;;;;;;;;28.96;57.38;101106.16;5079402;27;68950;-33
2023/02/10 01:18:11;;;;;;;;;;;;;;;28.95;57.43;101099.91;5076078;27;65683;-33
2023/02/10 01:20:42;;;;;;;;;;;;;;;28.99;57.38;101107.63;5079311;27;70465;-33
2023/02/10 01:23:13;;;;;;;;;;;;;;;29.01;57.19;101108.25;5092133;27;65520;-33
2023/02/10 01:25:43;;;;;;;;;;;;;;;29.05;57.69;101112.22;5099543;27;70051;-33
2023/02/10 01:28:16;;;;;;;;;;;;;;;29.11;57.64;101119.53;5093896;27;66440;-33
2023/02/10 01:30:46;;;;;;;;;;;;;;;29.12;57.67;101115.81;5092279;27;70245;-34
2023/02/10 01:33:17;;;;;;;;;;;;;;;29.18;57.23;101120.38;5080426;27;66936;-35
2023/02/10 01:35:47;;;;;;;;;;;;;;;29.20;57.45;101106.66;5093242;27;70519;-34
2023/02/10 01:38:17;;;;;;;;;;;;;;;29.24;57.14;101116.88;5095897;27;65035;-34
2023/02/10 01:40:49;;;;;;;;;;;;;;;29.09;57.29;101089.19;5085944;27;70753;-34
2023/02/10 01:43:19;;;;;;;;;;;;;;;29.29;56.97;101122.50;5094382;27;65533;-35
2023/02/10 01:45:49;;;;;;;;;;;;;;;29.34;57.70;101130.00;5072944;27;70068;-37
2023/02/10 01:48:20;;;;;;;;;;;;;;;29.35;57.67;101121.69;5096608;27;65776;-36
2023/02/10 01:51:08;;;;;;;;;;;;;;;29.36;57.48;101126.06;5080580;27;70235;-35
2023/02/10 01:53:39;;;;;;;;;;;;;;;29.39;57.12;101133.75;5080618;27;66356;-33
2023/02/10 01:56:10;;;;;;;;;;;;;;;29.41;56.28;101138.94;5088438;27;71022;-35
2023/02/10 01:58:41;;;;;;;;;;;;;;;29.43;56.67;101141.47;5077386;27;66568;-37
2023/02/10 02:01:11;;;;;;;;;;;;;;;29.43;56.29;101139.59;5090535;27;69617;-37
2023/02/10 02:03:41;;;;;;;;;;;;;;;29.45;56.29;101132.09;5095866;27;66718;-36
2023/02/10 02:06:11;;;;;;;;;;;;;;;29.48;56.30;101130.88;5084938;27;69760;-37
2023/02/10 02:08:42;;;;;;;;;;;;;;;29.50;56.29;101139.59;5093667;27;67088;-34
2023/02/10 02:11:12;;;;;;;;;;;;;;;29.54;56.01;101135.44;5079733;27;70540;-35
2023/02/10 02:13:56;;;;;;;;;;;;;;;29.55;56.09;101134.41;5070207;27;66092;-35
2023/02/10 02:16:47;;;;;;;;;;;;;;;29.59;56.01;101141.06;5092064;27;70127;-34
2023/02/10 02:19:39;;;;;;;;;;;;;;;29.62;56.23;101148.78;5091334;27;67332;-37
2023/02/10 02:22:11;;;;;;;;;;;;;;;29.47;56.94;101118.38;5091709;27;70222;-35
2023/02/10 02:24:53;;;;;;;;;;;;;;;29.64;56.32;101141.28;5092000;27;66481;-35
2023/02/10 02:27:32;;;;;;;;;;;;;;;29.46;53.88;101144.56;5091131;27;68800;-34
2023/02/10 02:30:05;;;;;;;;;;;;;;;29.25;51.43;101134.72;5091768;27;66702;-35
2023/02/10 02:32:49;;;;;;;;;;;;;;;29.08;50.04;101136.13;5074725;27;70263;-35
2023/02/10 02:35:26;;;;;;;;;;;;;;;28.93;49.01;101144.38;5093383;27;67300;-34
2023/02/10 02:37:56;;;;;;;;;;;;;;;28.77;48.01;101145.53;5086538;27;69957;-32
2023/02/10 02:40:26;;;;;;;;;;;;;;;28.66;47.02;101146.09;5061616;27;65327;-34
2023/02/10 02:42:56;;;;;;;;;;;;;;;28.59;46.60;101147.94;5092006;27;69963;-33
2023/02/10 02:45:36;;;;;;;;;;;;;;;28.49;46.15;101132.91;5092908;27;66888;-34
2023/02/10 02:48:15;;;;;;;;;;;;;;;28.42;45.21;101147.38;5074865;27;70062;-33
2023/02/10 02:50:48;;;;;;;;;;;;;;;28.35;44.74;101139.22;5091879;27;66982;-35
2023/02/10 02:53:29;;;;;;;;;;;;;;;28.29;44.46;101142.72;5094586;27;69848;-34
2023/02/10 02:56:18;;;;;;;;;;;;;;;28.22;44.40;101139.97;5081651;27;66058;-40
2023/02/10 02:58:59;;;;;;;;;;;;;;;28.18;44.09;101135.16;5079951;27;70586;-35
2023/02/10 03:01:32;;;;;;;;;;;;;;;28.14;43.55;101144.66;5082003;27;66240;-34
2023/02/10 03:04:02;;;;;;;;;;;;;;;28.11;43.65;101150.44;5101198;27;68890;-34
2023/02/10 03:06:34;;;;;;;;;;;;;;;28.06;43.39;101130.31;5073733;27;66111;-34
2023/02/10 03:09:04;;;;;;;;;;;;;;;28.05;43.18;101128.66;5098533;27;69648;-33
2023/02/10 03:11:35;;;;;;;;;;;;;;;28.01;42.54;101119.25;5098763;27;66496;-34
2023/02/10 03:14:06;;;;;;;;;;;;;;;28.00;42.85;101128.38;5092180;27;69447;-34
2023/02/10 03:16:36;;;;;;;;;;;;;;;27.97;42.64;101118.00;5083650;27;67506;-34
2023/02/10 03:19:06;;;;;;;;;;;;;;;27.94;42.81;101112.13;5082707;27;70327;-35
2023/02/10 03:21:36;;;;;;;;;;;;;;;27.93;42.36;101114.00;5100791;27;66505;-33
2023/02/10 03:24:08;;;;;;;;;;;;;;;27.93;42.62;101100.53;5100554;27;69752;-34
2023/02/10 03:26:39;;;;;;;;;;;;;;;27.94;42.19;101110.28;5070525;27;65447;-34
2023/02/10 03:29:10;;;;;;;;;;;;;;;27.93;42.01;101111.31;5102103;27;69978;-34
2023/02/10 03:31:41;;;;;;;;;;;;;;;27.93;42.03;101102.41;5094368;27;67022;-37
2023/02/10 03:34:12;;;;;;;;;;;;;;;27.90;41.78;101092.00;5098994;27;70598;-35
2023/02/10 03:36:42;;;;;;;;;;;;;;;27.90;41.80;101087.44;5100590;27;66584;-40
2023/02/10 03:39:12;;;;;;;;;;;;;;;27.94;43.15;101091.41;5099808;27;70564;-34
2023/02/10 03:41:42;;;;;;;;;;;;;;;27.96;42.84;101078.56;5089191;27;65762;-35
2023/02/10 03:44:12;;;;;;;;;;;;;;;27.96;42.71;101073.16;5082748;27;69414;-35
2023/02/10 03:46:42;;;;;;;;;;;;;;;27.95;42.33;101071.50;5099443;27;66187;-38
2023/02/10 03:49:13;;;;;;;;;;;;;;;27.95;42.20;101073.38;5100145;27;70210;-35
2023/02/10 03:51:43;;;;;;;;;;;;;;;27.93;42.56;101072.75;5090215;27;66306;-34
2023/02/10 03:54:14;;;;;;;;;;;;;;;27.96;42.74;101070.47;5097325;27;70480;-37
2023/02/10 03:56:45;;;;;;;;;;;;;;;27.96;42.62;101067.78;5095660;27;66117;-38
2023/02/10 03:59:15;;;;;;;;;;;;;;;27.96;42.00;101066.94;5079484;27;70573;-35
2023/02/10 04:01:46;;;;;;;;;;;;;;;27.97;42.13;101068.59;5094148;27;66180;-40
2023/02/10 04:04:16;;;;;;;;;;;;;;;27.96;41.77;101062.38;5075115;27;69896;-35
2023/02/10 04:06:46;;;;;;;;;;;;;;;27.96;41.36;101051.59;5095821;27;66551;-36
2023/02/10 04:09:16;;;;;;;;;;;;;;;27.95;41.21;101052.63;5094604;27;69832;-36
2023/02/10 04:11:47;;;;;;;;;;;;;;;27.96;41.20;101050.78;5099070;27;66380;-35
2023/02/10 04:14:17;;;;;;;;;;;;;;;27.94;41.04;101040.16;5098853;27;69861;-33
2023/02/10 04:16:47;;;;;;;;;;;;;;;27.97;41.32;101042.50;5086360;27;64632;-34
2023/02/10 04:19:18;;;;;;;;;;;;;;;27.97;41.29;101023.63;5075447;27;69735;-33
2023/02/10 04:21:48;;;;;;;;;;;;;;;27.99;41.41;101020.72;5091065;27;66644;-38
2023/02/10 04:24:18;;;;;;;;;;;;;;;28.00;41.65;101019.66;5095430;27;70093;-35
2023/02/10 04:26:48;;;;;;;;;;;;;;;28.01;42.10;101006.00;5096268;27;66602;-35
2023/02/10 04:29:19;;;;;;;;;;;;;;;28.05;41.78;101007.28;5092568;27;69761;-36
2023/02/10 04:31:49;;;;;;;;;;;;;;;28.05;41.47;100999.19;5091492;27;66829;-35
2023/02/10 04:34:20;;;;;;;;;;;;;;;28.06;41.27;100998.16;5082733;27;70551;-35
2023/02/10 04:36:50;;;;;;;;;;;;;;;28.06;40.93;100990.06;5095219;27;66131;-35
2023/02/10 04:39:20;;;;;;;;;;;;;;;28.06;40.36;101000.84;5098374;27;70212;-36
2023/02/10 04:41:50;;;;;;;;;;;;;;;28.07;40.57;100994.41;5098702;27;65605;-35
2023/02/10 04:44:21;;;;;;;;;;;;;;;28.07;40.25;100991.72;5083789;27;69900;-35
2023/02/10 04:46:51;;;;;;;;;;;;;;;28.07;40.33;100983.63;5085489;27;65391;-35
2023/02/10 04:49:23;;;;;;;;;;;;;;;28.07;40.21;100970.16;5092202;27;70073;-36
2023/02/10 04:51:54;;;;;;;;;;;;;;;28.06;40.01;100968.50;5075257;27;66100;-35
2023/02/10 04:54:24;;;;;;;;;;;;;;;27.71;39.99;100915.59;5095507;27;71155;-40
2023/02/10 04:56:55;;;;;;;;;;;;;;;28.05;39.68;100966.84;5102006;27;66478;-38
2023/02/10 04:59:25;;;;;;;;;;;;;;;28.05;39.45;100958.75;5095829;27;70799;-38
2023/02/10 05:01:55;;;;;;;;;;;;;;;28.04;39.45;100951.69;5098206;27;65931;-39
2023/02/10 05:04:26;;;;;;;;;;;;;;;28.06;39.57;100943.41;5077681;27;70381;-34
2023/02/10 05:06:58;;;;;;;;;;;;;;;28.06;39.20;100938.84;5095824;27;66499;-40
2023/02/10 05:09:28;;;;;;;;;;;;;;;28.07;39.38;100937.78;5090492;27;70301;-38
2023/02/10 05:11:58;;;;;;;;;;;;;;;28.07;39.15;100937.78;5089126;27;66924;-36
2023/02/10 05:14:29;;;;;;;;;;;;;;;27.84;39.18;100886.88;5072112;27;70591;-38
2023/02/10 05:16:59;;;;;;;;;;;;;;;28.05;39.26;100921.00;5072586;27;65631;-35
2023/02/10 05:19:30;;;;;;;;;;;;;;;28.08;38.86;100908.94;5099961;27;69898;-34
2023/02/10 05:22:00;;;;;;;;;;;;;;;28.06;39.18;100903.78;5094683;27;66293;-38
2023/02/10 05:24:30;;;;;;;;;;;;;;;28.07;38.99;100897.34;5093930;27;69399;-39
2023/02/10 05:27:00;;;;;;;;;;;;;;;28.11;39.49;100894.25;5095549;27;66281;-38
2023/02/10 05:29:30;;;;;;;;;;;;;;;28.13;39.70;100889.47;5070495;27;68985;-36
2023/02/10 05:32:01;;;;;;;;;;;;;;;28.14;39.78;100881.22;5097045;27;65806;-35
2023/02/10 05:34:32;;;;;;;;;;;;;;;28.17;40.14;100879.97;5092775;27;70346;-35
2023/02/10 05:37:02;;;;;;;;;;;;;;;28.15;40.02;100865.84;5092385;27;66244;-35
2023/02/10 05:39:33;;;;;;;;;;;;;;;28.17;39.72;100864.63;5096130;27;70283;-34
2023/02/10 05:42:03;;;;;;;;;;;;;;;28.20;39.80;100858.00;5076704;27;67094;-34
2023/02/10 05:44:33;;;;;;;;;;;;;;;28.23;39.67;100857.59;5096484;27;69233;-35
2023/02/10 05:47:03;;;;;;;;;;;;;;;28.22;40.05;100850.50;5099127;27;66483;-35
2023/02/10 05:49:34;;;;;;;;;;;;;;;28.24;39.58;100837.66;5094194;27;70127;-35
2023/02/10 05:52:04;;;;;;;;;;;;;;;28.27;39.96;100839.94;5098177;27;66407;-35
2023/02/10 05:54:34;;;;;;;;;;;;;;;28.27;39.65;100826.44;5099045;27;70651;-36
2023/02/10 05:57:06;;;;;;;;;;;;;;;28.25;39.85;100823.13;5094296;27;65616;-36
2023/02/10 05:59:37;;;;;;;;;;;;;;;28.27;39.67;100826.44;5094273;27;70703;-36
2023/02/10 06:02:08;;;;;;;;;;;;;;;28.27;39.58;100821.06;5100591;27;66103;-38
2023/02/10 06:04:38;;;;;;;;;;;;;;;28.31;39.50;100821.50;5095702;27;70393;-41
2023/02/10 06:07:08;;;;;;;;;;;;;;;28.32;39.31;100812.38;5095442;27;65761;-36
2023/02/10 06:09:39;;;;;;;;;;;;;;;28.34;40.52;100805.72;5099327;27;68900;-38
2023/02/10 06:12:13;;;;;;;;;;;;;;;28.39;39.97;100794.31;5092587;27;66102;-34
2023/02/10 06:14:43;;;;;;;;;;;;;;;28.39;40.04;100787.06;5100709;27;70392;-36
2023/02/10 06:17:14;;;;;;;;;;;;;;;28.40;39.73;100788.72;5090292;27;66378;-35
2023/02/10 06:19:45;;;;;;;;;;;;;;;28.41;40.24;100781.44;5099689;27;70428;-34
2023/02/10 06:22:15;;;;;;;;;;;;;;;28.42;39.79;100777.72;5091173;27;66742;-36
2023/02/10 06:24:45;;;;;;;;;;;;;;;28.48;42.58;100771.53;5098331;27;69761;-34
2023/02/10 06:27:16;;;;;;;;;;;;;;;28.51;41.98;100768.41;5084602;27;66364;-35
2023/02/10 06:29:48;;;;;;;;;;;;;;;28.51;41.43;100753.06;5093157;27;69876;-37
2023/02/10 06:32:18;;;;;;;;;;;;;;;28.51;40.87;100761.16;5090735;27;66655;-35
2023/02/10 06:34:49;;;;;;;;;;;;;;;28.54;40.79;100759.09;5093157;27;70383;-36
2023/02/10 06:37:19;;;;;;;;;;;;;;;28.56;40.44;100743.53;5083599;27;67343;-35
2023/02/10 06:39:50;;;;;;;;;;;;;;;28.57;39.75;100734.38;5100038;27;69866;-34
2023/02/10 06:42:20;;;;;;;;;;;;;;;28.58;39.92;100731.44;5091402;27;66539;-34
2023/02/10 06:44:50;;;;;;;;;;;;;;;28.58;39.46;100733.31;5095319;27;68874;-33
2023/02/10 06:47:21;;;;;;;;;;;;;;;28.58;38.93;100719.84;5097759;27;66059;-35
2023/02/10 06:49:51;;;;;;;;;;;;;;;28.56;38.88;100727.31;5099013;27;70024;-34
2023/02/10 06:52:24;;;;;;;;;;;;;;;28.55;39.12;100704.06;5096559;27;66449;-34
2023/02/10 06:54:54;;;;;;;;;;;;;;;28.58;38.78;100714.44;5099834;27;69846;-34
2023/02/10 06:57:24;;;;;;;;;;;;;;;28.62;39.46;100700.31;5094844;27;66321;-35
2023/02/10 06:59:55;;;;;;;;;;;;;;;28.61;39.75;100695.13;5098904;27;70001;-35
2023/02/10 07:02:25;;;;;;;;;;;;;;;28.62;39.82;100694.09;5094483;27;66232;-35
2023/02/10 07:04:56;;;;;;;;;;;;;;;28.61;39.48;100692.44;5077070;27;69380;-35
2023/02/10 07:07:26;;;;;;;;;;;;;;;28.60;40.34;100685.38;5068649;27;66517;-35
2023/02/10 07:09:57;;;;;;;;;;;;;;;28.63;41.20;100672.28;5099309;27;69761;-35
2023/02/10 07:12:27;;;;;;;;;;;;;;;28.64;40.75;100673.09;5096980;27;66132;-35
2023/02/10 07:14:58;;;;;;;;;;;;;;;28.45;40.37;100640.56;5080574;27;70771;-36
2023/02/10 07:17:28;;;;;;;;;;;;;;;28.61;40.10;100651.94;5082150;27;66471;-36
2023/02/10 07:19:58;;;;;;;;;;;;;;;28.61;39.49;100665.44;5097127;27;70208;-34
2023/02/10 07:22:28;;;;;;;;;;;;;;;28.60;39.35;100663.78;5095116;27;66988;-39
2023/02/10 07:24:59;;;;;;;;;;;;;;;28.60;39.75;100663.78;5092733;27;70637;-35
2023/02/10 07:27:29;;;;;;;;;;;;;;;28.63;40.83;100652.56;5099868;27;65770;-35
2023/02/10 07:29:59;;;;;;;;;;;;;;;28.67;40.57;100643.03;5097040;27;69897;-34
2023/02/10 07:32:30;;;;;;;;;;;;;;;28.70;40.76;100645.31;5080053;27;65736;-34
2023/02/10 07:35:00;;;;;;;;;;;;;;;28.73;40.11;100647.56;5089203;27;70276;-34
2023/02/10 07:37:31;;;;;;;;;;;;;;;28.77;40.34;100631.78;5090885;27;66797;-36
2023/02/10 07:40:02;;;;;;;;;;;;;;;28.79;39.89;100633.22;5091459;27;70071;-35
2023/02/10 07:42:34;;;;;;;;;;;;;;;28.81;40.10;100639.25;5066032;27;66266;-35
2023/02/10 07:45:19;;;;;;;;;;;;;;;28.86;39.87;100628.66;5099016;27;69980;-34
2023/02/10 07:47:50;;;;;;;;;;;;;;;28.87;39.95;100627.59;5095470;27;65379;-35
2023/02/10 07:50:20;;;;;;;;;;;;;;;28.90;39.76;100621.78;5100384;27;69443;-38
2023/02/10 07:52:50;;;;;;;;;;;;;;;28.95;39.52;100631.94;5085460;27;65436;-37
2023/02/10 07:55:20;;;;;;;;;;;;;;;28.97;39.53;100621.72;5089928;27;69733;-36
2023/02/10 07:57:52;;;;;;;;;;;;;;;29.01;39.70;100619.44;5090156;27;65736;-35
2023/02/10 08:00:22;;;;;;;;;;;;;;;29.03;39.64;100614.66;5088704;27;70242;-35
2023/02/10 08:02:52;;;;;;;;;;;;;;;29.06;39.33;100625.06;5091879;27;66578;-35
2023/02/10 08:05:23;;;;;;;;;;;;;;;29.10;40.45;100610.91;5097944;27;69779;-35
2023/02/10 08:07:53;;;;;;;;;;;;;;;29.61;48.99;100620.84;5097165;27;66434;-34
2023/02/10 08:10:23;;;;;;;;;;;;;;;29.96;51.54;100614.97;5101008;27;69850;-35
2023/02/10 08:12:54;;;;;;;;;;;;;;;30.25;51.98;100623.50;5092800;27;67851;-34
2023/02/10 08:15:25;;;;;;;;;;;;;;;30.54;52.89;100627.38;5096361;27;69135;-37
2023/02/10 08:17:55;;;;;;;;;;;;;;;30.75;52.36;100617.16;5081223;27;67639;-35
2023/02/10 08:20:26;;;;;;;;;;;;;;;30.93;51.89;100615.31;5093509;27;69432;-34
2023/02/10 08:22:58;;;;;;;;;;;;;;;31.09;52.55;100615.72;5089683;27;66437;-34
2023/02/10 08:25:28;;;;;;;;;;;;;;;31.24;52.58;100635.13;5100771;27;70129;-34
2023/02/10 08:27:58;;;;;;;;;;;;;;;31.40;52.06;100631.00;5074316;27;65960;-33
2023/02/10 08:30:29;;;;;;;;;;;;;;;31.52;52.22;100621.00;5092711;27;69317;-34
2023/02/10 08:32:59;;;;;;;;;;;;;;;31.63;51.29;100626.72;5100170;27;65697;-33
2023/02/10 08:35:29;;;;;;;;;;;;;;;31.76;50.94;100630.06;5101232;27;69838;-34
2023/02/10 08:38:00;;;;;;;;;;;;;;;31.93;50.39;100630.22;5080048;27;65568;-34
2023/02/10 08:40:31;;;;;;;;;;;;;;;32.03;50.08;100635.06;5096474;27;70600;-34
2023/02/10 08:43:01;;;;;;;;;;;;;;;32.16;49.07;100639.47;5102422;27;65816;-33
2023/02/10 08:45:32;;;;;;;;;;;;;;;32.24;48.63;100639.09;5094425;27;69198;-34
2023/02/10 08:48:02;;;;;;;;;;;;;;;32.27;48.67;100635.91;5088620;27;66216;-34
2023/02/10 08:50:32;;;;;;;;;;;;;;;32.30;48.14;100640.88;5084167;27;69166;-33
2023/02/10 08:53:03;;;;;;;;;;;;;;;32.32;48.29;100644.19;5097395;27;66273;-38
2023/02/10 08:55:33;;;;;;;;;;;;;;;32.32;48.58;100632.47;5091022;27;70510;-35
2023/02/10 08:58:03;;;;;;;;;;;;;;;32.30;48.53;100649.00;5095948;27;66569;-35
2023/02/10 09:00:35;;;;;;;;;;;;;;;32.30;48.41;100646.31;5093300;27;70044;-37
2023/02/10 09:03:05;;;;;;;;;;;;;;;32.31;48.50;100645.22;5093279;27;66120;-37
2023/02/10 09:05:36;;;;;;;;;;;;;;;32.31;48.54;100652.56;5093697;27;69856;-36
2023/02/10 09:08:06;;;;;;;;;;;;;;;32.32;48.53;100651.47;5102358;27;66932;-36
2023/02/10 09:10:38;;;;;;;;;;;;;;;32.33;48.46;100655.88;5100033;27;69917;-38
2023/02/10 09:13:09;;;;;;;;;;;;;;;32.36;48.69;100653.50;5100505;27;65536;-36
2023/02/10 09:15:41;;;;;;;;;;;;;;;32.36;48.50;100656.22;5080760;27;69809;-36
2023/02/10 09:18:11;;;;;;;;;;;;;;;32.35;48.45;100653.75;5101301;27;66959;-36
2023/02/10 09:20:41;;;;;;;;;;;;;;;32.39;48.49;100655.75;5099202;27;70332;-34
2023/02/10 09:23:11;;;;;;;;;;;;;;;32.44;49.11;100663.19;5097788;27;66636;-37
2023/02/10 09:25:41;;;;;;;;;;;;;;;32.46;49.59;100663.81;5093196;27;69644;-37
2023/02/10 09:28:12;;;;;;;;;;;;;;;32.49;49.79;100668.78;5100217;27;66855;-36
2023/02/10 09:30:42;;;;;;;;;;;;;;;32.52;49.13;100675.63;5099574;27;69832;-35
2023/02/10 09:33:13;;;;;;;;;;;;;;;32.51;49.09;100672.06;5099953;27;66887;-41
2023/02/10 09:35:43;;;;;;;;;;;;;;;32.51;49.06;100679.38;5062657;27;70306;-37
2023/02/10 09:38:14;;;;;;;;;;;;;;;32.52;49.84;100667.47;5097613;27;66685;-36
2023/02/10 09:40:50;;;;;;;;;;;;;;;32.55;49.81;100680.56;5096017;27;69728;-36
2023/02/10 09:43:39;;;;;;;;;;;;;;;32.57;48.60;100673.00;5098069;27;66562;-37
2023/02/10 09:46:28;;;;;;;;;;;;;;;32.60;48.39;100684.22;5095832;27;69313;-36
2023/02/10 09:49:17;;;;;;;;;;;;;;;32.64;48.46;100685.41;5096792;27;65903;-36
2023/02/10 09:51:50;;;;;;;;;;;;;;;32.63;48.42;100688.38;5093320;27;70359;-36
2023/02/10 09:54:20;;;;;;;;;;;;;;;32.65;48.66;100681.63;5096486;27;66669;-36
2023/02/10 09:56:50;;;;;;;;;;;;;;;32.64;48.84;100690.81;5094287;27;71400;-40
2023/02/10 09:59:25;;;;;;;;;;;;;;;32.66;48.66;100690.59;5091984;27;67316;-36
2023/02/10 10:01:59;;;;;;;;;;;;;;;32.66;48.92;100682.44;5092749;27;70808;-36
2023/02/10 10:04:31;;;;;;;;;;;;;;;32.66;48.84;100677.03;5089453;27;66707;-38
2023/02/10 10:07:12;;;;;;;;;;;;;;;32.65;49.45;100676.19;5091788;27;70292;-36
2023/02/10 10:09:45;;;;;;;;;;;;;;;32.66;50.05;100685.16;5091911;27;66427;-35
2023/02/10 10:12:19;;;;;;;;;;;;;;;32.64;51.26;100676.44;5089484;27;70162;-36
2023/02/10 10:14:49;;;;;;;;;;;;;;;32.65;51.85;100686.22;5092399;27;65680;-35
2023/02/10 10:17:20;;;;;;;;;;;;;;;32.64;51.97;100690.00;5088009;27;70913;-35
2023/02/10 10:19:55;;;;;;;;;;;;;;;32.63;52.43;100693.78;5090224;27;66380;-38
2023/02/10 10:22:26;;;;;;;;;;;;;;;32.64;52.23;100695.44;5092023;27;69828;-34
2023/02/10 10:25:34;;;;;;;;;;;;;;;32.62;50.98;100692.94;5085922;27;66133;-37
2023/02/10 10:28:10;;;;;;;;;;;;;;;32.67;51.84;100689.53;5029889;28;69624;-36
2023/02/10 10:30:45;;;;;;;;;;;;;;;32.91;51.21;100699.31;5033452;28;66671;-37
2023/02/10 10:33:22;;;;;;;;;;;;;;;33.05;50.45;100696.38;5065846;27;69192;-39
2023/02/10 10:35:52;;;;;;;;;;;;;;;33.13;49.89;100702.25;5092481;27;66402;-37
2023/02/10 10:38:28;;;;;;;;;;;;;;;33.21;49.59;100706.50;5089954;27;70247;-37
2023/02/10 10:41:00;;;;;;;;;;;;;;;33.26;49.34;100703.03;5071858;27;65121;-36
2023/02/10 10:43:31;;;;;;;;;;;;;;;33.31;49.14;100705.88;5089918;27;69866;-40
2023/02/10 10:46:25;;;;;;;;;;;;;;;33.33;49.07;100703.75;5087730;27;65438;-40
2023/02/10 10:48:55;;;;;;;;;;;;;;;33.34;48.74;100711.63;5084779;27;70112;-37
2023/02/10 10:51:26;;;;;;;;;;;;;;;33.37;48.33;100713.06;5089288;27;66644;-37
2023/02/10 10:53:58;;;;;;;;;;;;;;;33.37;48.35;100711.16;5064741;27;69388;-40
2023/02/10 10:56:49;;;;;;;;;;;;;;;33.36;48.24;100714.94;5074596;27;66142;-39
2023/02/10 10:59:22;;;;;;;;;;;;;;;33.36;48.33;100714.94;5093507;27;69743;-39
2023/02/10 11:01:52;;;;;;;;;;;;;;;33.37;48.07;100722.03;5092251;27;66710;-37
2023/02/10 11:04:23;;;;;;;;;;;;;;;33.35;48.14;100721.47;5092851;27;70558;-36
2023/02/10 11:06:55;;;;;;;;;;;;;;;33.35;48.02;100716.03;5093457;27;64592;-35
2023/02/10 11:09:31;;;;;;;;;;;;;;;33.33;47.99;100726.31;5092610;27;70141;-38
2023/02/10 11:12:07;;;;;;;;;;;;;;;33.33;47.90;100730.94;5088490;27;66522;-39
2023/02/10 11:14:42;;;;;;;;;;;;;;;33.32;48.27;100727.38;5078680;27;69496;-36
2023/02/10 11:17:32;;;;;;;;;;;;;;;33.31;48.26;100731.16;5093051;27;66677;-36
2023/02/10 11:20:05;;;;;;;;;;;;;;;33.29;48.22;100749.63;5090917;27;70563;-37
2023/02/10 11:22:35;;;;;;;;;;;;;;;33.27;48.10;100742.75;5096063;27;66182;-36
2023/02/10 11:25:26;;;;;;;;;;;;;;;33.26;48.56;100747.34;5098778;27;68524;-36
2023/02/10 11:27:57;;;;;;;;;;;;;;;33.24;48.64;100749.50;5090218;27;66548;-38
2023/02/10 11:30:32;;;;;;;;;;;;;;;33.23;48.88;100753.28;5075096;27;69853;-38
2023/02/10 11:33:04;;;;;;;;;;;;;;;33.23;49.17;100752.44;5100382;27;65545;-38
2023/02/10 11:35:34;;;;;;;;;;;;;;;33.20;49.29;100761.91;5095757;27;69839;-36
2023/02/10 11:38:06;;;;;;;;;;;;;;;33.19;49.32;100762.97;5098565;27;66481;-37
2023/02/10 11:40:51;;;;;;;;;;;;;;;33.17;49.28;100775.16;5087174;27;69006;-37
2023/02/10 11:43:24;;;;;;;;;;;;;;;33.13;49.38;100774.81;5095729;27;65967;-38
2023/02/10 11:45:56;;;;;;;;;;;;;;;33.11;49.24;100777.75;5100837;27;69993;-37
2023/02/10 11:48:28;;;;;;;;;;;;;;;33.09;49.72;100779.06;5074377;27;65961;-36
2023/02/10 11:51:07;;;;;;;;;;;;;;;33.06;49.77;100785.78;5097598;27;69835;-39
2023/02/10 11:53:38;;;;;;;;;;;;;;;33.03;49.67;100790.88;5087451;27;66336;-36
2023/02/10 11:56:08;;;;;;;;;;;;;;;33.00;49.60;100791.38;5097157;27;70395;-38
2023/02/10 11:59:14;;;;;;;;;;;;;;;32.97;49.82;100799.97;5090130;27;65154;-37
2023/02/10 12:01:49;;;;;;;;;;;;;;;32.96;50.00;100806.44;5041575;28;70410;-36
2023/02/10 12:04:38;;;;;;;;;;;;;;;32.91;49.77;100799.00;5089958;27;66546;-36
2023/02/10 12:07:21;;;;;;;;;;;;;;;32.90;50.00;100809.06;5082788;27;70644;-39
2023/02/10 12:09:57;;;;;;;;;;;;;;;32.89;50.08;100817.44;5095437;27;65643;-36
2023/02/10 12:12:33;;;;;;;;;;;;;;;32.85;50.19;100817.09;5095872;27;70683;-36
2023/02/10 12:15:22;;;;;;;;;;;;;;;32.83;50.39;100826.53;5090880;27;65718;-36
2023/02/10 12:18:12;;;;;;;;;;;;;;;32.81;50.39;100829.47;5090242;27;70411;-36
2023/02/10 12:21:01;;;;;;;;;;;;;;;32.73;50.55;100824.38;5092460;27;65388;-36
2023/02/10 12:23:55;;;;;;;;;;;;;;;32.44;52.18;100829.63;5071090;27;69720;-36
2023/02/10 12:26:29;;;;;;;;;;;;;;;32.32;53.20;100827.91;5054239;27;66691;-37
2023/02/10 12:28:59;;;;;;;;;;;;;;;32.15;53.82;100828.59;5093916;27;69226;-37
2023/02/10 12:31:41;;;;;;;;;;;;;;;32.10;54.04;100830.34;5096279;27;66302;-37
2023/02/10 12:34:21;;;;;;;;;;;;;;;32.03;54.24;100836.66;5094832;27;70245;-41
2023/02/10 12:36:54;;;;;;;;;;;;;;;31.97;54.46;100832.16;5096532;27;66672;-38
2023/02/10 12:39:30;;;;;;;;;;;;;;;31.95;55.56;100839.69;5093633;27;70621;-38
2023/02/10 12:42:36;;;;;;;;;;;;;;;31.92;56.16;100834.72;5093659;27;66191;-38
2023/02/10 12:45:24;;;;;;;;;;;;;;;31.91;56.25;100838.50;5033878;28;70484;-35
2023/02/10 12:48:11;;;;;;;;;;;;;;;31.91;56.20;100832.22;5063928;27;66400;-37
2023/02/10 12:50:59;;;;;;;;;;;;;;;31.91;56.04;100852.06;5095165;27;68809;-39
2023/02/10 12:53:36;;;;;;;;;;;;;;;31.89;55.56;100851.44;5088517;27;66656;-42
2023/02/10 12:56:15;;;;;;;;;;;;;;;31.88;55.97;100852.50;5092620;27;70784;-38
2023/02/10 12:58:55;;;;;;;;;;;;;;;31.88;56.07;100849.78;5088030;27;66353;-40
2023/02/10 13:01:25;;;;;;;;;;;;;;;31.87;55.66;100858.97;5093069;27;70397;-39
2023/02/10 13:04:07;;;;;;;;;;;;;;;31.81;56.20;100855.28;5099784;27;66372;-36